Puritas Park, Ohio
Current Conditions -  °F | °C
As of 3:51 AM on Saturday 22 Nov 2014 (Local Time) from KCLE Reporting Station
Clear Clear  
Wind Chill: 13°   Ceiling: Unl
Heat Index: 25°   Visibility: 10mi
Dew Point:   Wind: 15mph
Humidity: 51%   Direction: 180°S
Pressure: 30.32"   Gusts: NA
Location:  41.4315°N, 81.8114°W
Report Text: KCLE 220851Z 18013KT 10SM CLR M04/M13 A3032 RMK AO2 SLP279 T10391128 58025 $
Loading
Personal Weather Stations






























Interactive Weather Map New forecast layout! Learn more

10-Day Weather Forecast

Advertisements
Track Severe Weather on mobile